Time;durP1;ratioP1;P1;durP2;ratioP2;P2;SDS_P1;SDS_P2;PMS_P1;PMS_P2;Temp;Humidity;BMP_temperature;BMP_pressure;BME280_temperature;BME280_humidity;BME280_pressure;Samples;Min_cycle;Max_cycle;Signal;HPM_P1;HPM_P2
2022/06/23 00:01:48;;;;;;;6.63;1.10;;;22.50;99.90;;;;;;4992756;28;20050;-49
2022/06/23 00:04:20;;;;;;;3.45;0.98;;;22.50;99.90;;;;;;4992966;28;20389;-50
2022/06/23 00:06:52;;;;;;;4.00;1.20;;;22.60;99.90;;;;;;4992763;28;20026;-50
2022/06/23 00:09:37;;;;;;;6.90;1.33;;;22.60;99.90;;;;;;4992839;28;20030;-48
2022/06/23 00:12:18;;;;;;;5.35;1.15;;;22.60;99.90;;;;;;4992958;28;20026;-49
2022/06/23 00:15:07;;;;;;;7.88;1.20;;;22.70;99.90;;;;;;4992636;28;20045;-48
2022/06/23 00:17:36;;;;;;;7.40;1.83;;;22.70;99.90;;;;;;4989644;28;20030;-49
2022/06/23 00:20:15;;;;;;;6.18;2.13;;;22.70;99.90;;;;;;4992748;28;20042;-48
2022/06/23 00:22:45;;;;;;;6.95;1.10;;;22.70;99.90;;;;;;4992655;28;20031;-48
2022/06/23 00:25:40;;;;;;;4.20;1.20;;;22.60;99.90;;;;;;4992603;28;20023;-48
2022/06/23 00:28:12;;;;;;;9.35;1.52;;;22.20;99.90;;;;;;4984112;28;20035;-49
2022/06/23 00:30:40;;;;;;;7.65;1.92;;;22.20;99.90;;;;;;4992514;28;20029;-49
2022/06/23 00:33:14;;;;;;;3.88;1.13;;;22.00;99.90;;;;;;4992290;28;20057;-49
2022/06/23 00:35:40;;;;;;;4.45;1.20;;;21.90;99.90;;;;;;4992596;28;20026;-48
2022/06/23 00:38:19;;;;;;;3.33;1.10;;;21.90;99.90;;;;;;4992463;28;20074;-49
2022/06/23 00:40:45;;;;;;;5.28;0.85;;;21.90;99.90;;;;;;4992472;28;20084;-49
2022/06/23 00:43:11;;;;;;;5.45;1.35;;;22.00;99.90;;;;;;4992486;28;20026;-49
2022/06/23 00:45:49;;;;;;;3.92;0.82;;;22.10;99.90;;;;;;4992349;28;20023;-49
2022/06/23 00:48:39;;;;;;;5.05;1.08;;;22.10;99.90;;;;;;4992376;28;20038;-49
2022/06/23 00:51:23;;;;;;;4.30;1.27;;;22.20;99.90;;;;;;4992240;28;20431;-49
2022/06/23 00:54:29;;;;;;;4.18;0.90;;;22.20;99.90;;;;;;4992161;28;20468;-49
2022/06/23 00:57:09;;;;;;;3.78;1.25;;;22.30;99.90;;;;;;4992320;28;20499;-49
2022/06/23 00:59:39;;;;;;;2.33;0.70;;;22.30;99.90;;;;;;4992464;28;20042;-49
2022/06/23 01:02:19;;;;;;;3.58;0.85;;;22.30;99.90;;;;;;4991956;28;20022;-49
2022/06/23 01:04:45;;;;;;;3.55;0.90;;;22.30;99.90;;;;;;4991913;28;20510;-49
2022/06/23 01:07:45;;;;;;;4.03;1.45;;;22.30;99.90;;;;;;4992052;28;20062;-48
2022/06/23 01:10:23;;;;;;;6.15;0.90;;;22.30;99.90;;;;;;4991991;28;20563;-49
2022/06/23 01:13:05;;;;;;;2.53;0.90;;;22.20;99.90;;;;;;4991951;28;20081;-49
2022/06/23 01:15:41;;;;;;;9.93;1.55;;;22.00;99.90;;;;;;4991905;28;20425;-49
2022/06/23 01:18:39;;;;;;;4.63;1.63;;;21.90;99.90;;;;;;4991264;28;20054;-48
2022/06/23 01:21:05;;;;;;;6.03;1.50;;;21.80;99.90;;;;;;4991955;28;20023;-48
2022/06/23 01:23:39;;;;;;;6.97;1.40;;;21.70;99.90;;;;;;4991871;28;20038;-49
2022/06/23 01:26:32;;;;;;;6.95;1.17;;;21.60;99.90;;;;;;4991715;28;20121;-49
2022/06/23 01:29:07;;;;;;;10.63;2.03;;;21.60;99.90;;;;;;4992121;28;20030;-49
2022/06/23 01:32:00;;;;;;;4.05;1.10;;;21.70;99.90;;;;;;4991746;28;20451;-49
2022/06/23 01:34:46;;;;;;;3.70;1.05;;;21.60;99.90;;;;;;4991818;28;20045;-49
2022/06/23 01:37:25;;;;;;;11.43;1.73;;;21.60;99.90;;;;;;4991651;28;20022;-49
2022/06/23 01:40:10;;;;;;;8.07;1.92;;;21.70;99.90;;;;;;4991663;28;20042;-48
2022/06/23 01:42:55;;;;;;;4.60;0.80;;;21.80;99.90;;;;;;4991850;28;20026;-48
2022/06/23 01:45:43;;;;;;;4.38;0.93;;;21.90;99.90;;;;;;4991624;28;20069;-48
2022/06/23 01:48:51;;;;;;;4.00;0.80;;;21.90;99.90;;;;;;4987833;28;20062;-49
2022/06/23 01:51:05;;;;;;;8.52;1.05;;;21.90;99.90;;;;;;4991694;28;20038;-49
2022/06/23 01:53:33;;;;;;;5.63;1.05;;;21.90;99.90;;;;;;4991555;28;20385;-49
2022/06/23 01:56:46;;;;;;;4.45;0.95;;;22.00;99.90;;;;;;4991675;28;20034;-48
2022/06/23 02:01:53;;;;;;;3.65;1.30;;;22.00;99.90;;;;;;4970208;28;20047;-56
2022/06/23 02:04:30;;;;;;;3.70;1.08;;;21.90;99.90;;;;;;4970808;28;20122;-55
2022/06/23 02:07:02;;;;;;;2.42;0.80;;;21.90;99.90;;;;;;4972028;28;20019;-55
2022/06/23 02:09:44;;;;;;;3.17;0.70;;;21.90;99.90;;;;;;4972062;28;20073;-55
2022/06/23 02:12:29;;;;;;;3.05;0.93;;;21.90;99.90;;;;;;4972104;28;20487;-55
2022/06/23 02:15:05;;;;;;;6.82;0.82;;;21.90;99.90;;;;;;4971936;28;20049;-55
2022/06/23 02:17:56;;;;;;;3.33;1.00;;;21.90;99.90;;;;;;4972024;28;20023;-55
2022/06/23 02:20:42;;;;;;;2.42;1.50;;;21.90;99.90;;;;;;4972087;28;20117;-56
2022/06/23 02:23:28;;;;;;;3.70;1.05;;;21.90;99.90;;;;;;4971962;28;20026;-55
2022/06/23 02:26:17;;;;;;;4.35;0.88;;;21.90;99.90;;;;;;4971904;28;20384;-55
2022/06/23 02:29:04;;;;;;;4.00;1.23;;;21.90;99.90;;;;;;4972379;28;20026;-55
2022/06/23 02:31:46;;;;;;;6.70;1.05;;;21.90;99.90;;;;;;4975525;28;20492;-55
2022/06/23 02:34:20;;;;;;;3.80;1.02;;;21.90;99.90;;;;;;4975101;28;20472;-54
2022/06/23 02:37:27;;;;;;;6.32;1.25;;;21.90;99.90;;;;;;4975459;28;20105;-55
2022/06/23 02:39:57;;;;;;;2.83;0.40;;;21.90;99.90;;;;;;4957577;28;20365;-52
2022/06/23 02:42:25;;;;;;;2.70;0.85;;;21.90;99.90;;;;;;4975048;28;20540;-53
2022/06/23 02:45:00;;;;;;;4.07;0.50;;;21.90;99.90;;;;;;4974994;28;20380;-53
2022/06/23 02:48:03;;;;;;;2.30;0.55;;;21.90;99.90;;;;;;4974916;28;20365;-53
2022/06/23 02:50:50;;;;;;;4.65;0.82;;;21.80;99.90;;;;;;4971810;28;20035;-53
2022/06/23 02:53:22;;;;;;;;;;;21.80;99.90;;;;;;4975310;28;20039;-54
2022/06/23 02:55:58;;;;;;;4.47;0.55;;;21.80;99.90;;;;;;4974945;28;19910;-53
2022/06/23 02:58:32;;;;;;;3.00;0.95;;;21.70;99.90;;;;;;4974957;28;20027;-53
2022/06/23 03:01:00;;;;;;;2.47;0.80;;;21.70;99.90;;;;;;4957861;28;20134;-53
2022/06/23 03:03:29;;;;;;;3.25;0.82;;;21.70;99.90;;;;;;4974865;28;20061;-53
2022/06/23 03:05:55;;;;;;;1.17;0.75;;;21.80;99.90;;;;;;4974670;28;20089;-53
2022/06/23 03:08:26;;;;;;;1.52;0.50;;;21.80;99.90;;;;;;4974776;28;20023;-53
2022/06/23 03:10:52;;;;;;;3.10;0.45;;;21.80;99.90;;;;;;4974617;28;20023;-54
2022/06/23 03:13:39;;;;;;;5.43;1.75;;;21.70;99.90;;;;;;4974567;28;20019;-53
2022/06/23 03:16:28;;;;;;;3.58;0.95;;;21.70;99.90;;;;;;4974679;28;20042;-54
2022/06/23 03:19:00;;;;;;;5.93;1.30;;;21.70;99.90;;;;;;4974531;28;20034;-55
2022/06/23 03:21:54;;;;;;;5.05;0.88;;;21.60;99.90;;;;;;4974398;28;20110;-53
2022/06/23 03:24:35;;;;;;;5.72;1.13;;;21.60;99.90;;;;;;4965093;28;20027;-53
2022/06/23 03:27:15;;;;;;;4.13;0.68;;;21.60;99.90;;;;;;4973769;28;20370;-55
2022/06/23 03:30:24;;;;;;;3.70;0.90;;;21.70;99.90;;;;;;4974410;28;20109;-54
2022/06/23 03:32:58;;;;;;;3.35;0.57;;;21.50;99.90;;;;;;4961348;28;20444;-54
2022/06/23 03:35:36;;;;;;;2.67;0.80;;;21.50;99.90;;;;;;4974101;28;20491;-53
2022/06/23 03:38:11;;;;;;;3.03;0.75;;;21.50;99.90;;;;;;4974217;28;20034;-53
2022/06/23 03:44:00;;;;;;;5.47;1.17;;;21.60;99.90;;;;;;4974355;28;20030;-53
2022/06/23 03:46:39;;;;;;;2.25;0.80;;;21.60;99.90;;;;;;4973884;28;20029;-53
2022/06/23 03:49:35;;;;;;;2.70;0.70;;;21.70;99.90;;;;;;4974126;28;20025;-53
2022/06/23 03:52:05;;;;;;;7.95;1.13;;;21.70;99.90;;;;;;4973843;28;20027;-54
2022/06/23 03:54:44;;;;;;;3.67;1.00;;;21.70;99.90;;;;;;4973802;28;20039;-54
2022/06/23 03:57:18;;;;;;;4.15;0.90;;;21.70;99.90;;;;;;4973888;28;20023;-54
2022/06/23 03:59:55;;;;;;;1.98;0.70;;;21.60;99.90;;;;;;4974045;28;20057;-54
2022/06/23 04:02:25;;;;;;;6.60;0.82;;;21.70;99.90;;;;;;4974222;28;20052;-54
2022/06/23 04:05:10;;;;;;;1.42;0.40;;;21.60;99.90;;;;;;4973552;28;20440;-53
2022/06/23 04:07:49;;;;;;;5.03;1.05;;;21.60;99.90;;;;;;4973674;28;20202;-53
2022/06/23 04:10:33;;;;;;;4.03;0.80;;;21.70;99.90;;;;;;4973507;28;20114;-54
2022/06/23 04:13:18;;;;;;;1.67;0.82;;;21.70;99.90;;;;;;4956017;28;20030;-54
2022/06/23 04:15:44;;;;;;;2.67;0.77;;;21.70;99.90;;;;;;4972443;28;20042;-54
2022/06/23 04:18:20;;;;;;;3.05;0.70;;;21.60;99.90;;;;;;4971858;28;20026;-54
2022/06/23 04:21:18;;;;;;;2.05;0.35;;;21.70;99.90;;;;;;4973103;28;20061;-53
2022/06/23 04:23:51;;;;;;;1.85;0.43;;;21.80;99.90;;;;;;4968746;28;20041;-54
2022/06/23 04:26:22;;;;;;;2.00;0.50;;;22.00;99.90;;;;;;4971870;28;20027;-54
2022/06/23 04:28:53;;;;;;;2.95;0.57;;;22.10;99.90;;;;;;4972123;28;20019;-54
2022/06/23 04:31:27;;;;;;;4.53;0.50;;;22.20;99.90;;;;;;4971624;28;20023;-53
2022/06/23 04:33:54;;;;;;;2.95;0.80;;;22.30;99.90;;;;;;4971365;28;20030;-53
2022/06/23 04:36:24;;;;;;;3.70;0.55;;;22.30;99.90;;;;;;4971297;28;20030;-51
2022/06/23 04:38:58;;;;;;;3.40;0.90;;;22.40;99.90;;;;;;4971231;28;20034;-54
2022/06/23 04:41:35;;;;;;;3.78;0.70;;;22.50;99.90;;;;;;4971056;28;20134;-53
2022/06/23 04:44:14;;;;;;;5.00;0.73;;;22.50;99.90;;;;;;4970859;28;20030;-53
2022/06/23 04:46:48;;;;;;;2.28;0.82;;;22.50;99.90;;;;;;4970930;28;20027;-54
2022/06/23 04:49:25;;;;;;;5.30;1.25;;;22.60;99.90;;;;;;4953362;28;20507;-53
2022/06/23 04:51:59;;;;;;;4.65;2.05;;;22.60;99.90;;;;;;4970181;28;20027;-53
2022/06/23 04:54:54;;;;;;;1.48;0.63;;;22.60;99.90;;;;;;4972218;28;20400;-54
2022/06/23 04:57:54;;;;;;;2.78;0.70;;;22.60;99.90;;;;;;4972638;28;20043;-53
2022/06/23 05:00:28;;;;;;;1.85;0.65;;;22.60;99.90;;;;;;4969500;28;20050;-54
2022/06/23 05:02:58;;;;;;;1.63;0.60;;;22.60;99.90;;;;;;4972630;28;20023;-54
2022/06/23 05:05:31;;;;;;;3.35;1.63;;;22.60;99.90;;;;;;4972576;28;20056;-54
2022/06/23 05:08:26;;;;;;;1.60;0.50;;;22.60;99.90;;;;;;4971289;28;20411;-53
2022/06/23 05:10:58;;;;;;;4.63;0.77;;;22.60;99.90;;;;;;4972493;28;20388;-53
2022/06/23 05:13:36;;;;;;;2.22;0.55;;;22.60;99.90;;;;;;4972289;28;20395;-54
2022/06/23 05:16:16;;;;;;;3.15;0.60;;;22.60;99.90;;;;;;4972312;28;20030;-54
2022/06/23 05:18:46;;;;;;;2.63;0.68;;;22.60;99.90;;;;;;4972483;28;20038;-54
2022/06/23 05:21:17;;;;;;;5.40;0.73;;;22.60;99.90;;;;;;4972432;28;20488;-54
2022/06/23 05:23:59;;;;;;;2.95;1.30;;;22.70;99.90;;;;;;4955093;28;20397;-55
2022/06/23 05:26:43;;;;;;;4.63;0.85;;;22.70;99.90;;;;;;4955030;28;20030;-54
2022/06/23 05:29:49;;;;;;;5.20;0.80;;;22.70;99.90;;;;;;4972554;28;20106;-54
2022/06/23 05:32:34;;;;;;;2.35;0.68;;;22.70;99.90;;;;;;4948467;28;20611;-54
2022/06/23 05:35:03;;;;;;;4.60;0.95;;;22.80;99.90;;;;;;4954839;28;20066;-54
2022/06/23 05:37:42;;;;;;;4.95;0.70;;;22.80;99.90;;;;;;4972263;28;20547;-54
2022/06/23 05:40:22;;;;;;;4.72;1.10;;;22.80;99.90;;;;;;4972353;28;20079;-54
2022/06/23 05:42:50;;;;;;;3.17;0.57;;;22.80;99.90;;;;;;4972186;28;20027;-54
2022/06/23 05:45:38;;;;;;;2.95;0.75;;;22.80;99.90;;;;;;4972127;28;20027;-54
2022/06/23 05:48:07;;;;;;;4.97;0.85;;;22.80;99.90;;;;;;4972173;28;20499;-54
2022/06/23 05:50:41;;;;;;;4.18;1.00;;;22.80;99.90;;;;;;4972212;28;20031;-54
2022/06/23 05:53:33;;;;;;;4.38;0.90;;;22.80;99.90;;;;;;4972004;28;20400;-54
2022/06/23 05:56:15;;;;;;;2.78;1.00;;;22.80;99.90;;;;;;4971871;28;20491;-55
2022/06/23 05:59:03;;;;;;;4.03;0.60;;;22.80;99.90;;;;;;4972258;28;20041;-55
2022/06/23 06:01:43;;;;;;;3.55;0.77;;;22.80;99.90;;;;;;4954346;28;20051;-55
2022/06/23 06:04:14;;;;;;;1.58;0.95;;;22.90;99.90;;;;;;4974591;28;20416;-54
2022/06/23 06:06:41;;;;;;;5.40;1.48;;;22.90;99.90;;;;;;4975789;28;20026;-54
2022/06/23 06:11:59;;;;;;;1.80;0.60;;;22.90;99.90;;;;;;4975577;28;20185;-54
2022/06/23 06:14:28;;;;;;;2.97;0.60;;;22.90;99.90;;;;;;4957995;28;20450;-54
2022/06/23 06:16:57;;;;;;;4.85;0.95;;;23.00;99.90;;;;;;4975612;28;20023;-55
2022/06/23 06:19:25;;;;;;;2.17;0.70;;;23.00;99.90;;;;;;4975437;28;20480;-54
2022/06/23 06:21:57;;;;;;;4.05;0.90;;;23.00;99.90;;;;;;4975363;28;20101;-54
2022/06/23 06:24:33;;;;;;;1.42;0.40;;;23.10;99.90;;;;;;4975344;28;20030;-54
2022/06/23 06:27:01;;;;;;;4.07;0.60;;;23.10;99.90;;;;;;4975194;28;20019;-54
2022/06/23 06:29:36;;;;;;;2.78;1.33;;;23.10;99.90;;;;;;4975174;28;20023;-54
2022/06/23 06:32:21;;;;;;;3.40;0.40;;;23.10;99.90;;;;;;4957814;28;20387;-54
2022/06/23 06:35:15;;;;;;;8.02;0.88;;;23.10;99.90;;;;;;4957606;28;20476;-54
2022/06/23 06:37:44;;;;;;;3.75;1.42;;;23.20;99.90;;;;;;4975165;28;20030;-54
2022/06/23 06:40:12;;;;;;;5.15;1.13;;;23.20;99.90;;;;;;4975021;28;20023;-54
2022/06/23 06:42:53;;;;;;;4.25;0.70;;;23.20;99.90;;;;;;4975087;28;20023;-54
2022/06/23 06:45:22;;;;;;;3.95;0.90;;;23.20;99.90;;;;;;4974688;28;20027;-54
2022/06/23 06:47:48;;;;;;;3.50;1.08;;;23.20;99.90;;;;;;4974946;28;20109;-54
2022/06/23 06:50:27;;;;;;;10.23;1.25;;;23.30;99.90;;;;;;4974982;28;20484;-54
2022/06/23 06:52:53;;;;;;;4.78;1.50;;;23.30;99.90;;;;;;4957438;28;20118;-54
2022/06/23 06:55:26;;;;;;;6.28;1.48;;;23.40;99.90;;;;;;4974519;28;20122;-54
2022/06/23 06:58:02;;;;;;;2.92;0.98;;;23.30;99.90;;;;;;4974612;28;20110;-55
2022/06/23 07:00:39;;;;;;;6.55;1.30;;;23.40;99.90;;;;;;4958064;28;20055;-55
2022/06/23 07:03:06;;;;;;;6.05;2.20;;;23.50;99.90;;;;;;4974722;28;20027;-55
2022/06/23 07:05:41;;;;;;;3.25;1.48;;;23.60;99.90;;;;;;4974540;28;20110;-55
2022/06/23 07:08:23;;;;;;;8.00;1.45;;;23.60;99.90;;;;;;4974477;28;20082;-54
2022/06/23 07:10:54;;;;;;;4.10;1.33;;;23.70;99.90;;;;;;4974264;28;20069;-53
2022/06/23 07:13:26;;;;;;;6.95;1.20;;;23.70;99.90;;;;;;4974559;28;20030;-54
2022/06/23 07:16:24;;;;;;;3.75;1.02;;;23.70;99.90;;;;;;4973643;28;20042;-54
2022/06/23 07:19:00;;;;;;;4.53;1.73;;;23.80;99.90;;;;;;4974313;28;20029;-54
2022/06/23 07:21:36;;;;;;;6.22;2.30;;;23.90;99.90;;;;;;4974210;28;20130;-53
2022/06/23 07:24:19;;;;;;;20.90;4.50;;;23.90;99.90;;;;;;4974098;28;20381;-54
2022/06/23 07:26:48;;;;;;;7.65;2.42;;;24.00;99.90;;;;;;4974302;28;20041;-53
2022/06/23 07:29:26;;;;;;;4.88;2.53;;;23.90;99.90;;;;;;4974453;28;20053;-53
2022/06/23 07:32:16;;;;;;;2.80;1.55;;;24.00;99.90;;;;;;4974044;28;20027;-54
2022/06/23 07:34:49;;;;;;;3.13;1.60;;;24.00;99.90;;;;;;4974041;28;20061;-53
2022/06/23 07:37:30;;;;;;;8.20;1.27;;;24.00;99.90;;;;;;4974195;28;20034;-54
2022/06/23 07:40:06;;;;;;;10.20;4.43;;;23.90;99.90;;;;;;4973883;28;20511;-54
2022/06/23 07:42:54;;;;;;;5.38;2.60;;;23.80;99.90;;;;;;4974014;28;20034;-53
2022/06/23 07:45:34;;;;;;;5.15;1.17;;;23.70;99.90;;;;;;4973801;28;20126;-53
2022/06/23 07:48:00;;;;;;;5.53;1.75;;;23.70;99.90;;;;;;4973794;28;20049;-54
2022/06/23 07:50:26;;;;;;;6.18;1.67;;;23.50;99.90;;;;;;4956465;28;20469;-53
2022/06/23 07:52:52;;;;;;;9.60;1.20;;;23.40;99.90;;;;;;4974231;28;20424;-54
2022/06/23 07:55:31;;;;;;;5.35;1.20;;;23.30;99.90;;;;;;4973805;28;20038;-54
2022/06/23 07:57:58;;;;;;;3.97;1.20;;;23.30;99.90;;;;;;4973662;28;20496;-53
2022/06/23 08:00:25;;;;;;;6.43;1.08;;;23.20;99.90;;;;;;4973467;28;20134;-53
2022/06/23 08:02:53;;;;;;;;;;;23.10;99.90;;;;;;4973942;28;20095;-54
2022/06/23 08:05:27;;;;;;;9.80;3.03;;;23.10;99.90;;;;;;4973639;28;19958;-54
2022/06/23 08:07:55;;;;;;;4.25;1.20;;;23.20;99.90;;;;;;4973291;28;20023;-53
2022/06/23 08:10:29;;;;;;;4.40;1.90;;;23.10;99.90;;;;;;4973597;28;20492;-55
2022/06/23 08:13:19;;;;;;;5.10;1.30;;;23.10;99.90;;;;;;4955927;28;20034;-53
2022/06/23 08:18:50;;;;;;;3.80;1.23;;;23.00;99.90;;;;;;4973456;28;20456;-53
2022/06/23 08:21:35;;;;;;;2.17;1.05;;;22.80;99.90;;;;;;4973120;28;20364;-54
2022/06/23 08:24:08;;;;;;;5.05;1.73;;;22.80;99.90;;;;;;4973094;28;20495;-53
2022/06/23 08:26:37;;;;;;;6.90;1.92;;;22.70;99.90;;;;;;4973142;28;20476;-54
2022/06/23 08:29:07;;;;;;;5.03;1.40;;;22.60;99.90;;;;;;4973014;28;20031;-53
2022/06/23 08:31:33;;;;;;;6.57;1.40;;;22.60;99.90;;;;;;4972963;28;20059;-54
2022/06/23 08:34:00;;;;;;;7.85;1.20;;;22.80;99.90;;;;;;4972872;28;20031;-54
2022/06/23 08:36:42;;;;;;;3.40;1.70;;;22.80;99.90;;;;;;4972974;28;20030;-54
2022/06/23 08:39:33;;;;;;;5.28;1.13;;;22.80;99.90;;;;;;4955513;28;20034;-54
2022/06/23 08:42:20;;;;;;;4.10;1.30;;;22.70;99.90;;;;;;4972841;28;20019;-54
2022/06/23 08:45:04;;;;;;;9.48;1.23;;;22.80;99.90;;;;;;4955478;28;20395;-53
2022/06/23 08:47:57;;;;;;;6.95;4.15;;;22.90;99.90;;;;;;4972714;28;20105;-53
2022/06/23 08:50:36;;;;;;;6.78;1.35;;;23.00;99.90;;;;;;4972890;28;20422;-53
2022/06/23 08:53:11;;;;;;;4.22;1.25;;;23.00;99.90;;;;;;4972555;28;20026;-54
2022/06/23 08:55:49;;;;;;;3.75;1.55;;;23.00;99.90;;;;;;4972333;28;20066;-54
2022/06/23 08:58:37;;;;;;;2.90;1.02;;;23.10;99.90;;;;;;4972620;28;20378;-54
2022/06/23 09:01:25;;;;;;;4.40;1.10;;;23.20;99.90;;;;;;4949046;28;20374;-54
2022/06/23 09:04:14;;;;;;;2.88;0.90;;;23.30;99.90;;;;;;4972434;28;20031;-54
2022/06/23 09:06:41;;;;;;;5.25;1.48;;;23.20;99.90;;;;;;4972187;28;20580;-54
2022/06/23 09:09:19;;;;;;;4.03;0.95;;;23.30;99.90;;;;;;4972512;28;20113;-54
2022/06/23 09:11:56;;;;;;;7.72;1.20;;;23.40;99.90;;;;;;4972359;28;20022;-54
2022/06/23 09:14:46;;;;;;;4.88;1.58;;;23.50;99.90;;;;;;4972375;28;20054;-54
2022/06/23 09:17:32;;;;;;;8.07;1.33;;;23.60;99.90;;;;;;4972137;28;20051;-54
2022/06/23 09:20:16;;;;;;;2.75;2.03;;;23.60;99.90;;;;;;4972099;28;20054;-53
2022/06/23 09:23:05;;;;;;;4.22;1.05;;;23.70;99.90;;;;;;4972190;28;20106;-53
2022/06/23 09:25:53;;;;;;;4.22;1.50;;;23.80;99.90;;;;;;4964239;28;20049;-52
2022/06/23 09:28:22;;;;;;;5.22;0.75;;;23.80;99.90;;;;;;4972279;28;20023;-54
2022/06/23 09:31:01;;;;;;;5.95;1.45;;;23.80;99.90;;;;;;4972092;28;20029;-56
2022/06/23 09:33:39;;;;;;;4.50;1.20;;;23.80;99.90;;;;;;4971959;28;20101;-55
2022/06/23 09:36:40;;;;;;;10.10;1.50;;;23.80;99.90;;;;;;4972103;28;20035;-55
2022/06/23 09:39:30;;;;;;;5.53;2.83;;;23.80;99.90;;;;;;4964023;28;20552;-55
2022/06/23 09:41:56;;;;;;;8.35;1.83;;;23.80;99.90;;;;;;4975969;28;20518;-55
2022/06/23 09:44:33;;;;;;;6.35;1.73;;;23.90;99.90;;;;;;4976345;28;20031;-55
2022/06/23 09:47:17;;;;;;;6.55;1.33;;;23.90;99.90;;;;;;4976009;28;20113;-55
2022/06/23 09:49:58;;;;;;;6.63;1.98;;;23.80;99.90;;;;;;4975927;28;20030;-55
2022/06/23 09:52:48;;;;;;;6.30;2.55;;;23.80;99.90;;;;;;4976000;28;20027;-55
2022/06/23 09:55:35;;;;;;;15.45;9.00;;;23.80;99.90;;;;;;4975869;28;20038;-55
2022/06/23 09:58:22;;;;;;;11.05;6.03;;;23.80;99.90;;;;;;4958203;28;20095;-55
2022/06/23 10:01:11;;;;;;;;;;;23.80;99.90;;;;;;4976019;28;20126;-56
2022/06/23 10:03:45;;;;;;;16.25;7.85;;;23.70;99.90;;;;;;4956630;28;19910;-56
2022/06/23 10:06:48;;;;;;;10.82;6.55;;;23.70;99.90;;;;;;4958567;28;20544;-55
2022/06/23 10:09:40;;;;;;;8.23;4.70;;;23.70;99.90;;;;;;4975633;28;20022;-55
2022/06/23 10:12:38;;;;;;;10.38;2.85;;;23.60;99.90;;;;;;4958166;28;20027;-55
2022/06/23 10:15:26;;;;;;;7.35;2.53;;;23.60;99.90;;;;;;4945159;28;20043;-56
2022/06/23 10:18:15;;;;;;;7.07;1.92;;;23.50;99.90;;;;;;4975400;28;20050;-56
2022/06/23 10:20:59;;;;;;;10.10;1.92;;;23.50;99.90;;;;;;4975479;28;20080;-56
2022/06/23 10:23:25;;;;;;;9.55;4.15;;;23.60;99.90;;;;;;4975298;28;20031;-55
2022/06/23 10:26:29;;;;;;;7.28;2.22;;;23.60;99.90;;;;;;4975154;28;20078;-55
2022/06/23 10:29:01;;;;;;;6.90;2.80;;;23.60;99.90;;;;;;4975169;28;20035;-55
2022/06/23 10:31:33;;;;;;;9.93;1.25;;;23.70;99.90;;;;;;4974985;28;20137;-56
2022/06/23 10:34:14;;;;;;;8.30;2.92;;;23.80;99.90;;;;;;4957451;28;20417;-55
2022/06/23 10:36:55;;;;;;;10.35;6.10;;;23.90;99.90;;;;;;4975191;28;20026;-55
2022/06/23 10:39:42;;;;;;;9.60;3.00;;;23.90;99.90;;;;;;4957488;28;20436;-56
2022/06/23 10:42:08;;;;;;;5.60;1.63;;;24.00;99.90;;;;;;4974914;28;20019;-57
2022/06/23 10:44:59;;;;;;;5.57;1.30;;;24.00;99.90;;;;;;4974938;28;20027;-55
2022/06/23 10:47:49;;;;;;;8.27;1.73;;;24.10;99.90;;;;;;4974749;28;20467;-55
2022/06/23 10:50:27;;;;;;;8.65;2.47;;;24.10;99.90;;;;;;4956357;28;20027;-55
2022/06/23 10:53:14;;;;;;;5.00;1.63;;;24.20;99.90;;;;;;4974709;28;20023;-55
2022/06/23 10:55:52;;;;;;;7.50;1.40;;;24.20;99.90;;;;;;4974619;28;20113;-55
2022/06/23 10:58:33;;;;;;;5.45;1.30;;;24.20;99.90;;;;;;4974811;28;20027;-55
2022/06/23 11:01:40;;;;;;;3.88;1.40;;;24.20;99.90;;;;;;4974321;28;20504;-55
2022/06/23 11:04:05;;;;;;;;;;;24.20;99.90;;;;;;4966784;28;20047;-54
2022/06/23 11:06:40;;;;;;;4.80;1.73;;;24.30;99.90;;;;;;4974383;28;20031;-55
2022/06/23 11:09:30;;;;;;;3.42;1.38;;;24.40;99.90;;;;;;4974530;28;20492;-54
2022/06/23 11:12:06;;;;;;;10.35;4.45;;;24.40;99.90;;;;;;4974456;28;20022;-56
2022/06/23 11:14:47;;;;;;;4.63;2.78;;;24.40;99.90;;;;;;4974222;28;20039;-55
2022/06/23 11:17:22;;;;;;;5.57;2.63;;;24.50;99.90;;;;;;4974530;28;20054;-55
2022/06/23 11:20:15;;;;;;;6.20;2.20;;;24.50;99.90;;;;;;4974507;28;20035;-54
2022/06/23 11:22:50;;;;;;;4.97;1.52;;;24.50;99.90;;;;;;4974234;28;20023;-55
2022/06/23 11:25:24;;;;;;;5.72;1.70;;;24.60;99.90;;;;;;4974466;28;20105;-55
2022/06/23 11:27:56;;;;;;;4.15;1.92;;;24.60;99.90;;;;;;4974307;28;20031;-56
2022/06/23 11:30:48;;;;;;;5.15;2.05;;;24.70;99.90;;;;;;4974262;28;20023;-55
2022/06/23 11:33:32;;;;;;;3.08;1.70;;;24.70;99.90;;;;;;4963614;28;20480;-56
2022/06/23 11:36:35;;;;;;;7.85;1.88;;;24.80;99.90;;;;;;4956894;28;20062;-56
2022/06/23 11:39:38;;;;;;;4.68;1.30;;;24.80;99.90;;;;;;4972196;28;20023;-56
2022/06/23 11:42:24;;;;;;;9.88;2.35;;;24.80;99.90;;;;;;4971372;28;20034;-56
2022/06/23 11:45:27;;;;;;;6.95;1.85;;;24.80;99.90;;;;;;4904922;28;20043;-56
2022/06/23 11:48:08;;;;;;;8.48;3.28;;;24.70;99.90;;;;;;4977646;28;20037;-56
2022/06/23 11:50:46;;;;;;;9.32;3.40;;;24.70;99.90;;;;;;4993113;28;20023;-56
2022/06/23 11:53:50;;;;;;;8.10;3.30;;;24.70;99.90;;;;;;4993099;28;20085;-55
2022/06/23 11:56:42;;;;;;;9.73;4.95;;;24.70;99.90;;;;;;4993054;28;20050;-56
2022/06/23 11:59:27;;;;;;;11.07;4.85;;;24.70;99.90;;;;;;4957172;28;20061;-56
2022/06/23 12:01:54;;;;;;;6.53;3.47;;;24.70;99.90;;;;;;4972468;28;20030;-56
2022/06/23 12:04:26;;;;;;;7.22;2.92;;;24.80;99.90;;;;;;4972772;28;20385;-56
2022/06/23 12:07:11;;;;;;;2.22;0.95;;;24.80;99.90;;;;;;4984499;28;20066;-55
2022/06/23 12:10:02;;;;;;;11.13;3.90;;;24.80;99.90;;;;;;4992645;28;20080;-56
2022/06/23 12:12:31;;;;;;;11.07;3.33;;;24.90;99.90;;;;;;4985379;28;20030;-54
2022/06/23 12:14:57;;;;;;;9.38;4.18;;;24.90;99.90;;;;;;4972195;28;20141;-54
2022/06/23 12:17:35;;;;;;;10.02;5.32;;;25.00;99.90;;;;;;4968355;28;20106;-54
2022/06/23 12:20:12;;;;;;;12.85;8.30;;;25.00;99.90;;;;;;4955461;28;20439;-53
2022/06/23 12:22:46;;;;;;;12.82;5.75;;;25.00;99.90;;;;;;4961790;28;20429;-55
2022/06/23 12:25:24;;;;;;;20.00;10.73;;;25.00;99.90;;;;;;4971517;28;20030;-54
2022/06/23 12:28:09;;;;;;;;;;;24.90;99.90;;;;;;4981183;28;20472;-54
2022/06/23 12:31:03;;;;;;;7.90;4.63;;;24.80;99.90;;;;;;4966835;28;19918;-54
2022/06/23 12:33:51;;;;;;;8.07;3.25;;;24.70;99.90;;;;;;4978023;28;20032;-53
2022/06/23 12:36:39;;;;;;;8.18;3.42;;;24.50;99.90;;;;;;4953950;28;20085;-56
2022/06/23 12:39:14;;;;;;;12.45;6.65;;;24.40;99.90;;;;;;4979721;28;20109;-55
2022/06/23 12:41:43;;;;;;;11.82;7.78;;;24.50;99.90;;;;;;4936275;28;20027;-56
2022/06/23 12:44:11;;;;;;;28.10;17.13;;;24.50;99.90;;;;;;4953379;28;20019;-55
2022/06/23 12:46:49;;;;;;;16.63;9.32;;;24.50;99.90;;;;;;4970482;28;20034;-56
2022/06/23 12:49:24;;;;;;;20.25;12.40;;;24.50;99.90;;;;;;4981044;28;20142;-54
2022/06/23 12:52:01;;;;;;;15.35;8.25;;;24.60;99.90;;;;;;4955109;28;20023;-55
2022/06/23 12:54:48;;;;;;;10.88;6.38;;;24.60;99.90;;;;;;4952990;28;20063;-55
2022/06/23 12:57:20;;;;;;;12.40;4.68;;;24.40;99.90;;;;;;4953048;28;20116;-56
2022/06/23 13:00:07;;;;;;;6.63;2.72;;;24.10;99.90;;;;;;4935907;28;20388;-54
2022/06/23 13:02:38;;;;;;;13.23;4.65;;;24.10;99.90;;;;;;4953184;28;20090;-55
2022/06/23 13:05:22;;;;;;;9.93;2.75;;;24.20;99.90;;;;;;4952871;28;20035;-55
2022/06/23 13:08:10;;;;;;;10.75;5.55;;;24.30;99.90;;;;;;4967630;28;20019;-55
2022/06/23 13:10:56;;;;;;;10.52;4.35;;;24.40;99.90;;;;;;4971363;28;20097;-56
2022/06/23 13:13:49;;;;;;;11.25;4.38;;;24.60;99.90;;;;;;4975343;28;20077;-57
2022/06/23 13:16:23;;;;;;;10.75;5.15;;;24.60;99.90;;;;;;4977936;28;20046;-56
2022/06/23 13:19:01;;;;;;;6.32;1.75;;;24.70;99.90;;;;;;4972724;28;20465;-56
2022/06/23 13:21:30;;;;;;;10.57;5.88;;;24.70;99.90;;;;;;4970091;28;20030;-57
2022/06/23 13:23:59;;;;;;;12.20;7.63;;;24.70;99.90;;;;;;4953446;28;20038;-56
2022/06/23 13:26:34;;;;;;;18.92;9.90;;;24.70;99.90;;;;;;4958899;28;20023;-56
2022/06/23 13:29:18;;;;;;;7.90;3.38;;;24.70;99.90;;;;;;4971193;28;20019;-56
2022/06/23 13:31:50;;;;;;;11.27;4.45;;;24.70;99.90;;;;;;4969370;28;20019;-56
2022/06/23 13:34:44;;;;;;;9.32;3.78;;;24.70;99.90;;;;;;4971216;28;20027;-56
2022/06/23 13:37:39;;;;;;;12.45;4.60;;;24.70;99.90;;;;;;4970606;28;20050;-57
2022/06/23 13:40:20;;;;;;;9.60;3.08;;;24.80;99.90;;;;;;4952698;28;20027;-56
2022/06/23 13:43:05;;;;;;;12.57;3.00;;;24.70;99.90;;;;;;4974995;28;20034;-56
2022/06/23 13:45:51;;;;;;;7.78;3.65;;;24.60;99.90;;;;;;4971070;28;20058;-56
2022/06/23 13:48:21;;;;;;;7.30;4.13;;;24.50;99.90;;;;;;4983368;28;20424;-56
2022/06/23 13:51:10;;;;;;;7.72;3.33;;;24.60;99.90;;;;;;4957614;28;20063;-56
2022/06/23 13:53:42;;;;;;;6.63;2.55;;;24.70;99.90;;;;;;4952471;28;20031;-57
2022/06/23 13:56:56;;;;;;;5.28;1.95;;;24.70;99.90;;;;;;4935207;28;20036;-57
2022/06/23 13:59:48;;;;;;;7.95;3.10;;;24.80;99.90;;;;;;4929746;29;20031;-56
2022/06/23 14:02:34;;;;;;;7.00;1.70;;;24.90;99.90;;;;;;4937576;29;20115;-56